Flugplatz Itzehoe/Hungriger Wolf

Für EDHF sind keine METAR/TAF Berichte vorhanden.
Es werden die Flugwettermeldungen vom Flugplatz Hohn Airport in 35 km Entfernung angezeigt.

Bericht für ETNH

vom 25.10. um 16:51 UTC

Wind 4 kt aus 190°

Sichtweite 4000 m

feuchter Dunst

aufgebrochene Bewölkung in 500 ft

Temperatur 10.0°C

Taupunkt 9.0°C

Luftfeuchtigkeit 93%

Luftdruck 1015 hPa

ETNH 251651Z 19004KT 4000 BR BKN005 10/09 Q1015 YLO

Prognose für ETNH

vom 25.10. um 16:00 UTC

Zwischen 17:00 UTC und 05:00 UTC

Wind 8 kt aus 190°

Sichtweite 8000 m

schwacher Regen

schwacher Sprühregen

aufgelockert bewölkt in 500 ft

aufgebrochene Bewölkung in 1200 ft


Zwischen 17:00 UTC und 05:00 UTC zeitweise

Wind 8 kt aus 200°

Sichtweite 2000 m

Sprühregen

Regen

aufgebrochene Bewölkung in 300 ft

bedeckt in 800 ft

TAF ETNH 251600Z 2517/2605 19008KT 8000 -RADZ SCT005 BKN012 TEMPO 2517/2605 20008KT 2000 DZRA BKN003 OVC008 BY ETGL
Impressum